Time;durP1;ratioP1;P1;durP2;ratioP2;P2;SDS_P1;SDS_P2;PMS_P1;PMS_P2;Temp;Humidity;BMP_temperature;BMP_pressure;BME280_temperature;BME280_humidity;BME280_pressure;Samples;Min_cycle;Max_cycle;Signal;HPM_P1;HPM_P2
2022/12/24 00:01:05;;;;;;;83.32;31.50;;;;;;;5.61;93.22;99332.84;4483047;32;33653;-72
2022/12/24 00:03:33;;;;;;;76.65;33.65;;;;;;;5.58;94.09;99338.72;4484175;32;33908;-73
2022/12/24 00:06:06;;;;;;;73.78;31.02;;;;;;;5.26;96.17;99342.84;4483651;32;33530;-73
2022/12/24 00:08:34;;;;;;;112.32;35.67;;;;;;;5.64;94.74;99313.34;4484567;32;34478;-73
2022/12/24 00:11:01;;;;;;;72.22;31.73;;;;;;;5.39;95.92;99325.56;4485520;31;34276;-73
2022/12/24 00:13:28;;;;;;;68.75;31.17;;;;;;;5.25;96.49;99324.78;4483355;32;32709;-73
2022/12/24 00:15:56;;;;;;;68.40;30.62;;;;;;;5.67;95.10;99328.91;4484284;31;33807;-73
2022/12/24 00:18:24;;;;;;;63.97;29.17;;;;;;;5.99;92.83;99319.59;4491184;31;33693;-73
2022/12/24 00:20:51;;;;;;;60.53;30.12;;;;;;;6.73;88.95;99302.94;4495319;31;33664;-73
2022/12/24 00:23:19;;;;;;;65.70;29.27;;;;;;;6.96;87.97;99303.25;4494991;31;34001;-73
2022/12/24 00:25:47;;;;;;;65.05;31.67;;;;;;;6.97;88.27;99297.28;4495114;31;33772;-73
2022/12/24 00:28:14;;;;;;;66.22;31.02;;;;;;;6.40;89.33;99308.09;4483528;31;34489;-72
2022/12/24 00:30:43;;;;;;;73.87;33.53;;;;;;;5.74;93.25;99303.56;4494975;31;34178;-72
2022/12/24 00:33:10;;;;;;;73.10;33.05;;;;;;;5.95;93.52;99312.53;4483716;31;33444;-72
2022/12/24 00:35:38;;;;;;;78.22;35.30;;;;;;;5.58;94.88;99312.09;4484590;32;33897;-73
2022/12/24 00:38:07;;;;;;;70.85;34.70;;;;;;;5.48;95.70;99323.53;4490745;31;33287;-73
2022/12/24 00:40:34;;;;;;;71.45;32.95;;;;;;;5.85;94.15;99343.59;4482924;32;33707;-73
2022/12/24 00:43:02;;;;;;;99.35;38.85;;;;;;;5.21;96.99;99369.94;4484442;32;33466;-73
2022/12/24 00:45:30;;;;;;;72.97;33.10;;;;;;;5.02;99.44;99392.75;4488456;31;33631;-73
2022/12/24 00:47:57;;;;;;;70.47;32.53;;;;;;;5.53;99.93;99381.22;4485716;31;34096;-73
2022/12/24 00:50:25;;;;;;;71.18;31.37;;;;;;;6.00;92.50;99372.78;4489657;31;33439;-73
2022/12/24 00:52:52;;;;;;;64.30;30.08;;;;;;;6.34;92.82;99379.78;4491480;31;33372;-73
2022/12/24 00:55:20;;;;;;;60.47;29.52;;;;;;;6.90;89.71;99373.34;4484416;32;33687;-73
2022/12/24 00:57:47;;;;;;;72.90;33.17;;;;;;;6.10;92.15;99362.22;4483700;32;33929;-73
2022/12/24 01:00:16;;;;;;;73.68;30.77;;;;;;;5.22;97.59;99361.44;4484320;31;33842;-73
2022/12/24 01:02:44;;;;;;;84.72;33.67;;;;;;;5.02;99.54;99351.69;4484629;31;33571;-73
2022/12/24 01:05:12;;;;;;;63.42;30.40;;;;;;;4.82;100.00;99346.25;4483951;32;33821;-73
2022/12/24 01:07:45;;;;;;;69.50;30.52;;;;;;;5.59;99.34;99329.31;4484131;32;33842;-73
2022/12/24 01:10:14;;;;;;;66.97;30.33;;;;;;;6.11;93.44;99324.53;4484085;32;34185;-72
2022/12/24 01:12:42;;;;;;;70.40;30.90;;;;;;;5.70;97.06;99315.37;4483873;32;34701;-72
2022/12/24 01:15:11;;;;;;;66.18;31.00;;;;;;;5.85;96.06;99295.69;4484139;32;33937;-73
2022/12/24 01:17:39;;;;;;;68.30;29.75;;;;;;;6.14;93.88;99277.50;4484104;32;34388;-73
2022/12/24 01:20:12;;;;;;;57.78;27.62;;;;;;;6.74;91.29;99284.13;4485893;32;33409;-73
2022/12/24 01:22:39;;;;;;;55.38;31.00;;;;;;;7.27;88.21;99267.91;4486075;32;33851;-73
2022/12/24 01:25:07;;;;;;;64.62;30.80;;;;;;;6.82;89.00;99282.84;4487340;31;33691;-73
2022/12/24 01:27:35;;;;;;;59.08;29.67;;;;;;;7.02;88.22;99285.53;4499639;31;33676;-73
2022/12/24 01:30:05;;;;;;;64.28;31.83;;;;;;;7.26;87.34;99273.88;4499850;31;33308;-73
2022/12/24 01:32:32;;;;;;;65.80;30.37;;;;;;;7.02;87.46;99286.41;4478068;31;33896;-73
2022/12/24 01:35:00;;;;;;;65.82;31.17;;;;;;;6.69;88.66;99290.72;4485955;32;33663;-73
2022/12/24 01:37:27;;;;;;;63.00;30.00;;;;;;;6.78;89.60;99293.78;4485825;32;34044;-73
2022/12/24 01:43:22;;;;;;;58.13;28.95;;;;;;;6.73;88.61;99287.50;4485903;32;33261;-73
2022/12/24 01:45:43;;;;;;;71.20;32.65;;;;;;;6.79;89.27;99284.34;4485936;32;34599;-73
2022/12/24 01:48:19;;;;;;;63.97;29.30;;;;;;;5.58;94.83;99266.75;4485846;32;33917;-72
2022/12/24 01:50:49;;;;;;;65.22;29.50;;;;;;;6.06;93.79;99298.53;4484664;32;33427;-72
2022/12/24 01:53:17;;;;;;;66.07;30.67;;;;;;;6.20;94.83;99275.25;4482201;31;34447;-72
2022/12/24 01:55:45;;;;;;;60.40;29.98;;;;;;;6.99;88.50;99285.37;4478477;32;34803;-73
2022/12/24 01:58:14;;;;;;;66.28;29.70;;;;;;;7.24;86.60;99288.38;4484613;32;33755;-73
2022/12/24 02:00:41;;;;;;;63.55;29.35;;;;;;;7.25;87.11;99284.09;4490847;31;33804;-72
2022/12/24 02:03:09;;;;;;;59.30;29.65;;;;;;;7.50;85.59;99282.75;4496610;31;33745;-72
2022/12/24 02:05:53;;;;;;;57.75;30.27;;;;;;;7.63;84.75;99287.66;4491409;31;34704;-73
2022/12/24 02:08:21;;;;;;;58.45;27.70;;;;;;;8.01;83.34;99284.31;4477032;31;33630;-73
2022/12/24 02:10:49;;;;;;;54.33;29.33;;;;;;;8.00;82.75;99284.25;4490832;31;33792;-73
2022/12/24 02:13:19;;;;;;;58.35;29.42;;;;;;;8.05;82.49;99278.50;4495232;31;33733;-73
2022/12/24 02:15:49;;;;;;;48.33;27.25;;;;;;;8.03;82.35;99290.41;4488023;31;34365;-73
2022/12/24 02:18:42;;;;;;;57.30;28.40;;;;;;;8.19;82.02;99319.50;4489208;31;33112;-73
2022/12/24 02:21:36;;;;;;;56.53;28.98;;;;;;;7.26;83.53;99302.22;4482564;31;33249;-72
2022/12/24 02:24:15;;;;;;;67.85;33.42;;;;;;;7.29;85.88;99379.66;4477963;32;33536;-72
2022/12/24 02:27:01;;;;;;;62.45;32.20;;;;;;;5.49;97.45;99366.44;4485588;32;33984;-72
2022/12/24 02:30:01;;;;;;;58.87;30.17;;;;;;;5.62;96.27;99344.87;4485136;32;33903;-72
2022/12/24 02:32:48;;;;;;;64.43;30.83;;;;;;;6.52;91.93;99312.12;4468521;31;33417;-72
2022/12/24 02:35:21;;;;;;;58.10;30.35;;;;;;;5.99;94.44;99313.56;4485536;32;33428;-72
2022/12/24 02:37:54;;;;;;;66.43;31.20;;;;;;;6.42;91.90;99306.47;4487960;31;34487;-73
2022/12/24 02:40:28;;;;;;;66.62;30.67;;;;;;;6.24;93.00;99308.97;4481455;31;33983;-73
2022/12/24 02:42:57;;;;;;;;;;;;;;;6.38;91.94;99299.41;4492356;31;33398;-73
2022/12/24 02:45:28;;;;;;;55.12;28.20;;;;;;;7.03;88.42;99287.28;4475020;32;34792;-73
2022/12/24 02:47:56;;;;;;;60.72;30.70;;;;;;;7.43;86.37;99289.28;4479310;31;33058;-72
2022/12/24 02:50:24;;;;;;;65.25;30.12;;;;;;;6.97;88.14;99285.28;4486957;31;33845;-72
2022/12/24 02:52:52;;;;;;;58.70;30.85;;;;;;;5.67;95.49;99285.25;4498263;31;33055;-72
2022/12/24 02:55:35;;;;;;;67.45;31.05;;;;;;;6.66;91.54;99290.56;4485278;32;34711;-72
2022/12/24 02:58:05;;;;;;;63.00;30.48;;;;;;;6.25;93.15;99291.84;4485446;32;33900;-73
2022/12/24 03:00:40;;;;;;;69.90;32.35;;;;;;;6.46;91.17;99298.13;4491634;31;33789;-73
2022/12/24 03:03:22;;;;;;;71.32;31.23;;;;;;;6.36;91.55;99308.72;4484149;32;31954;-73
2022/12/24 03:06:04;;;;;;;65.85;31.77;;;;;;;6.04;93.05;99318.16;4487111;31;34527;-73
2022/12/24 03:08:46;;;;;;;65.75;31.98;;;;;;;5.75;95.83;99320.78;4483238;32;33787;-73
2022/12/24 03:11:14;;;;;;;57.17;28.92;;;;;;;5.75;96.72;99313.06;4491308;31;33846;-73
2022/12/24 03:13:42;;;;;;;62.45;29.30;;;;;;;6.44;92.19;99317.72;4485506;32;33740;-72
2022/12/24 03:16:16;;;;;;;60.80;31.73;;;;;;;6.21;93.58;99316.50;4484195;32;33663;-73
2022/12/24 03:18:47;;;;;;;53.80;29.25;;;;;;;6.04;94.68;99328.44;4485140;32;34584;-73
2022/12/24 03:21:29;;;;;;;60.70;29.95;;;;;;;6.85;90.24;99323.28;4484623;31;33890;-72
2022/12/24 03:23:57;;;;;;;55.53;29.42;;;;;;;7.26;88.49;99307.37;4479339;32;33724;-72
2022/12/24 03:26:26;;;;;;;54.60;29.98;;;;;;;7.44;87.05;99304.81;4489738;31;33344;-72
2022/12/24 03:28:54;;;;;;;58.17;30.12;;;;;;;7.48;85.85;99309.31;4479739;31;34589;-72
2022/12/24 03:31:21;;;;;;;59.25;31.87;;;;;;;6.41;91.31;99309.88;4486853;31;34010;-73
2022/12/24 03:33:49;;;;;;;59.65;30.35;;;;;;;6.05;94.11;99301.94;4483046;31;32932;-72
2022/12/24 03:36:17;;;;;;;51.28;28.95;;;;;;;6.02;94.21;99299.19;4499562;31;33834;-73
2022/12/24 03:38:44;;;;;;;55.55;28.33;;;;;;;5.94;95.37;99304.69;4489966;31;33720;-72
2022/12/24 03:41:12;;;;;;;60.85;30.42;;;;;;;5.89;95.55;99309.56;4489584;31;34488;-73
2022/12/24 03:43:39;;;;;;;59.47;29.83;;;;;;;5.85;96.49;99313.66;4488891;31;33444;-72
2022/12/24 03:46:07;;;;;;;57.78;29.48;;;;;;;6.02;96.26;99330.03;4484705;32;34508;-72
2022/12/24 03:48:35;;;;;;;57.17;30.48;;;;;;;6.81;92.04;99327.38;4488467;31;33589;-72
2022/12/24 03:51:03;;;;;;;54.92;27.50;;;;;;;7.47;88.35;99342.72;4489888;31;33689;-73
2022/12/24 03:53:31;;;;;;;50.97;28.23;;;;;;;8.15;84.21;99333.06;4484915;32;34285;-73
2022/12/24 03:55:58;;;;;;;49.90;28.50;;;;;;;8.31;82.87;99338.16;4493493;31;34676;-73
2022/12/24 03:58:26;;;;;;;49.47;27.25;;;;;;;8.43;82.40;99332.69;4487802;31;33992;-73
2022/12/24 04:00:53;;;;;;;46.53;27.37;;;;;;;8.51;81.92;99336.50;4482235;31;34010;-72
2022/12/24 04:03:21;;;;;;;49.35;27.13;;;;;;;8.70;81.10;99333.06;4489249;31;33377;-73
2022/12/24 04:06:02;;;;;;;49.47;27.62;;;;;;;8.46;82.21;99338.91;4485642;31;33609;-73
2022/12/24 04:08:30;;;;;;;45.45;26.25;;;;;;;8.48;82.02;99328.66;4487240;31;34363;-73
2022/12/24 04:10:58;;;;;;;54.00;28.08;;;;;;;8.37;82.73;99325.53;4498044;31;34059;-73
2022/12/24 04:13:33;;;;;;;52.65;29.00;;;;;;;8.15;84.38;99335.66;4492595;31;34286;-73
2022/12/24 04:16:03;;;;;;;52.78;28.02;;;;;;;7.68;86.83;99333.47;4492758;31;34340;-72
2022/12/24 04:18:30;;;;;;;52.90;28.30;;;;;;;7.70;87.61;99345.56;4492310;31;33202;-72
2022/12/24 04:20:58;;;;;;;51.88;29.05;;;;;;;7.66;88.00;99350.56;4496693;31;33951;-73
2022/12/24 04:23:26;;;;;;;50.58;28.12;;;;;;;7.75;87.64;99354.41;4485773;31;33619;-73
2022/12/24 04:25:53;;;;;;;50.50;28.27;;;;;;;8.01;86.11;99361.69;4484020;32;33754;-73
2022/12/24 04:28:21;;;;;;;51.15;29.48;;;;;;;7.76;87.03;99358.75;4494978;31;34630;-73
2022/12/24 04:30:48;;;;;;;54.50;28.48;;;;;;;7.70;87.61;99340.41;4482833;31;32529;-73
2022/12/24 04:33:16;;;;;;;51.00;28.23;;;;;;;7.85;86.47;99351.47;4484392;32;33524;-72
2022/12/24 04:35:43;;;;;;;48.80;28.35;;;;;;;7.56;87.64;99350.03;4484281;32;33698;-72
2022/12/24 04:38:11;;;;;;;50.15;29.50;;;;;;;7.77;87.60;99342.47;4484308;32;33813;-73
2022/12/24 04:40:38;;;;;;;53.97;30.48;;;;;;;6.81;91.99;99350.56;4487980;31;34667;-73
2022/12/24 04:43:06;;;;;;;52.25;30.00;;;;;;;7.55;89.35;99349.16;4486177;31;34178;-73
2022/12/24 04:45:33;;;;;;;47.58;27.48;;;;;;;7.52;89.56;99342.97;4488716;31;34546;-73
2022/12/24 04:48:01;;;;;;;49.72;28.75;;;;;;;7.92;87.03;99343.22;4484259;32;33880;-73
2022/12/24 04:50:29;;;;;;;49.58;29.08;;;;;;;6.79;91.78;99344.44;4486183;31;33829;-73
2022/12/24 04:52:57;;;;;;;55.80;30.98;;;;;;;6.46;94.25;99349.56;4483498;32;33452;-73
2022/12/24 04:55:26;;;;;;;51.25;29.08;;;;;;;6.22;96.17;99340.53;4483859;32;33894;-73
2022/12/24 04:57:54;;;;;;;58.72;30.88;;;;;;;6.19;96.49;99343.81;4484115;32;34499;-72
2022/12/24 05:00:21;;;;;;;56.90;32.92;;;;;;;6.05;96.51;99355.94;4491408;31;34725;-73
2022/12/24 05:02:48;;;;;;;58.17;32.80;;;;;;;5.88;97.23;99351.50;4490847;31;34465;-72
2022/12/24 05:05:16;;;;;;;57.65;32.13;;;;;;;6.01;97.41;99364.28;4483977;32;33899;-73
2022/12/24 05:08:02;;;;;;;60.50;32.65;;;;;;;6.08;97.20;99356.09;4484263;32;34706;-73
2022/12/24 05:10:30;;;;;;;61.72;32.20;;;;;;;5.87;98.14;99350.63;4483142;31;34213;-72
2022/12/24 05:12:58;;;;;;;62.08;34.45;;;;;;;5.84;98.91;99349.56;4484114;32;34107;-72
2022/12/24 05:15:25;;;;;;;64.97;33.22;;;;;;;5.87;98.37;99366.03;4484085;32;33584;-72
2022/12/24 05:17:53;;;;;;;67.53;33.63;;;;;;;5.88;98.56;99367.81;4488425;31;33724;-73
2022/12/24 05:20:20;;;;;;;66.40;33.83;;;;;;;5.77;98.29;99368.00;4494197;31;33533;-72
2022/12/24 05:28:23;;;;;;;62.78;34.25;;;;;;;6.01;98.20;99374.56;4487186;31;33999;-73
2022/12/24 05:30:51;;;;;;;60.80;32.13;;;;;;;5.93;98.55;99375.78;4491302;31;34974;-73
2022/12/24 05:33:18;;;;;;;64.12;32.38;;;;;;;5.96;97.77;99385.38;4483774;32;33490;-73
2022/12/24 05:35:46;;;;;;;58.35;31.33;;;;;;;5.69;98.50;99371.00;4483964;32;33886;-73
2022/12/24 05:38:14;;;;;;;61.63;33.35;;;;;;;5.65;98.14;99394.75;4485945;31;33842;-73
2022/12/24 05:40:41;;;;;;;61.37;33.50;;;;;;;5.43;99.94;99391.78;4491010;31;33748;-73
2022/12/24 05:43:08;;;;;;;61.55;32.92;;;;;;;5.42;100.00;99389.97;4483663;32;33132;-72
2022/12/24 05:45:36;;;;;;;66.07;34.42;;;;;;;5.24;100.00;99390.66;4486607;31;34690;-72
2022/12/24 05:48:06;;;;;;;80.18;39.58;;;;;;;5.51;100.00;99372.53;4495674;31;33674;-73
2022/12/24 05:50:35;;;;;;;68.60;35.40;;;;;;;5.99;99.58;99370.09;4491859;31;34541;-73
2022/12/24 05:53:04;;;;;;;64.75;34.63;;;;;;;6.30;97.81;99372.72;4495498;31;33642;-73
2022/12/24 05:55:32;;;;;;;56.95;31.65;;;;;;;7.35;91.80;99373.03;4482175;32;33631;-73
2022/12/24 05:57:59;;;;;;;60.88;31.50;;;;;;;7.65;88.73;99379.72;4488313;31;33922;-73
2022/12/24 06:00:27;;;;;;;51.85;29.67;;;;;;;7.34;89.78;99381.56;4492519;31;34038;-73
2022/12/24 06:02:55;;;;;;;55.28;30.83;;;;;;;7.57;88.52;99386.22;4483418;32;33316;-73
2022/12/24 06:05:22;;;;;;;58.47;32.05;;;;;;;7.55;88.33;99392.97;4483846;32;33689;-72
2022/12/24 06:07:50;;;;;;;55.42;33.28;;;;;;;6.52;92.46;99391.87;4489175;31;35300;-73
2022/12/24 06:10:18;;;;;;;63.38;34.05;;;;;;;5.67;98.20;99393.16;4494846;31;34461;-73
2022/12/24 06:12:46;;;;;;;59.45;33.10;;;;;;;5.31;100.00;99395.38;4486477;31;33272;-73
2022/12/24 06:15:15;;;;;;;60.40;31.98;;;;;;;5.22;100.00;99393.94;4485883;32;33632;-73
2022/12/24 06:17:50;;;;;;;66.85;35.50;;;;;;;5.07;100.00;99401.63;4492482;31;34314;-73
2022/12/24 06:20:18;;;;;;;67.25;35.03;;;;;;;5.55;100.00;99402.75;4499274;31;33972;-72
2022/12/24 06:22:45;;;;;;;64.93;34.65;;;;;;;5.49;100.00;99402.41;4486227;31;34006;-72
2022/12/24 06:25:13;;;;;;;67.12;34.45;;;;;;;5.57;100.00;99392.56;4485605;32;33841;-72
2022/12/24 06:27:40;;;;;;;58.38;33.13;;;;;;;6.14;97.92;99395.81;4485664;31;33955;-72
2022/12/24 06:30:08;;;;;;;58.63;32.75;;;;;;;6.17;97.03;99402.00;4486339;31;34655;-72
2022/12/24 06:32:36;;;;;;;57.08;31.75;;;;;;;6.22;96.74;99399.69;4491302;31;33350;-73
2022/12/24 06:35:04;;;;;;;56.08;31.62;;;;;;;6.43;95.95;99406.03;4495913;31;34348;-73
2022/12/24 06:37:31;;;;;;;53.38;29.77;;;;;;;6.68;93.60;99407.34;4496937;31;33584;-73
2022/12/24 06:39:59;;;;;;;53.55;30.45;;;;;;;6.05;96.49;99407.34;4480854;31;33869;-73
2022/12/24 06:42:26;;;;;;;61.75;33.83;;;;;;;6.12;97.04;99417.97;4471068;31;33662;-73
2022/12/24 06:44:54;;;;;;;59.53;32.42;;;;;;;5.72;99.38;99425.16;4485352;32;33845;-73
2022/12/24 06:47:22;;;;;;;60.47;32.25;;;;;;;5.58;100.00;99428.63;4485122;31;34275;-73
2022/12/24 06:49:49;;;;;;;56.13;30.67;;;;;;;5.84;100.00;99426.66;4496175;31;33853;-73
2022/12/24 06:52:16;;;;;;;57.42;31.95;;;;;;;5.55;100.00;99433.56;4486210;31;33690;-73
2022/12/24 06:54:44;;;;;;;51.90;30.12;;;;;;;5.65;100.00;99440.12;4485447;32;33735;-73
2022/12/24 06:57:12;;;;;;;52.00;28.15;;;;;;;5.69;100.00;99435.25;4485320;32;33704;-73
2022/12/24 06:59:39;;;;;;;55.95;30.67;;;;;;;5.65;100.00;99448.72;4489425;31;33712;-73
2022/12/24 07:02:08;;;;;;;57.72;31.48;;;;;;;5.74;100.00;99440.69;4493329;31;33597;-73
2022/12/24 07:04:36;;;;;;;47.92;27.85;;;;;;;6.03;100.00;99439.81;4483989;31;84089;-73
2022/12/24 07:07:03;;;;;;;50.25;26.30;;;;;;;5.89;100.00;99440.66;4494672;31;33722;-73
2022/12/24 07:09:31;;;;;;;47.08;26.70;;;;;;;5.95;100.00;99434.97;4494968;31;34718;-73
2022/12/24 07:11:58;;;;;;;45.78;25.95;;;;;;;6.06;100.00;99439.97;4480485;31;33446;-73
2022/12/24 07:14:27;;;;;;;46.67;26.30;;;;;;;5.79;100.00;99443.50;4485930;31;34113;-73
2022/12/24 07:16:56;;;;;;;44.10;24.08;;;;;;;5.89;100.00;99438.09;4485230;31;34121;-73
2022/12/24 07:19:25;;;;;;;42.50;22.67;;;;;;;6.44;100.00;99433.50;4494327;31;33885;-73
2022/12/24 07:21:53;;;;;;;40.17;21.92;;;;;;;6.13;100.00;99436.06;4487057;31;33209;-73
2022/12/24 07:24:21;;;;;;;43.30;23.25;;;;;;;6.43;100.00;99426.62;4484900;32;34600;-73
2022/12/24 07:26:48;;;;;;;39.97;21.85;;;;;;;6.81;99.24;99430.34;4484809;31;33773;-73
2022/12/24 07:29:16;;;;;;;36.00;19.83;;;;;;;6.62;100.00;99435.31;4489954;31;34823;-73
2022/12/24 07:31:43;;;;;;;31.45;18.58;;;;;;;7.74;96.28;99430.84;4482822;31;34371;-73
2022/12/24 07:34:11;;;;;;;31.62;16.25;;;;;;;7.97;92.71;99439.72;4474083;31;34481;-73
2022/12/24 07:36:39;;;;;;;29.02;16.73;;;;;;;8.33;91.08;99434.59;4489095;31;34008;-73
2022/12/24 07:39:06;;;;;;;27.10;15.95;;;;;;;8.45;90.63;99448.09;4493152;31;33684;-73
2022/12/24 07:41:34;;;;;;;26.80;15.32;;;;;;;8.34;90.48;99445.78;4497257;31;33613;-73
2022/12/24 07:44:15;;;;;;;22.65;13.27;;;;;;;7.80;95.12;99456.06;4484384;31;33740;-73
2022/12/24 07:46:43;;;;;;;19.47;11.63;;;;;;;8.48;91.18;99449.06;4484010;31;33791;-73
2022/12/24 07:49:11;;;;;;;21.77;10.80;;;;;;;8.69;90.11;99455.22;4484678;32;33025;-73
2022/12/24 07:51:38;;;;;;;15.95;9.20;;;;;;;8.67;91.27;99462.00;4485158;31;33551;-73
2022/12/24 07:54:06;;;;;;;15.30;9.30;;;;;;;8.95;90.01;99471.06;4486905;31;33888;-73
2022/12/24 07:56:34;;;;;;;21.40;9.80;;;;;;;9.02;89.97;99460.16;4485573;31;33647;-73
2022/12/24 07:59:01;;;;;;;16.50;9.80;;;;;;;8.96;90.23;99468.56;4494697;31;32332;-73
2022/12/24 08:01:29;;;;;;;14.27;8.38;;;;;;;8.95;90.64;99463.31;4484109;32;33954;-73
2022/12/24 08:03:56;;;;;;;14.87;7.45;;;;;;;9.25;89.11;99464.69;4487665;31;34450;-73
2022/12/24 08:06:24;;;;;;;13.43;7.53;;;;;;;9.56;87.97;99471.22;4484504;32;34512;-73
2022/12/24 08:08:51;;;;;;;12.25;7.43;;;;;;;9.31;89.59;99489.94;4484495;32;32971;-73
2022/12/24 08:11:19;;;;;;;14.55;7.35;;;;;;;9.63;87.90;99488.75;4483145;31;33308;-73
2022/12/24 08:13:46;;;;;;;13.07;8.05;;;;;;;9.40;88.32;99499.78;4489547;31;33982;-75
2022/12/24 08:16:14;;;;;;;15.68;7.97;;;;;;;9.34;89.61;99500.38;4485550;31;34599;-75
2022/12/24 08:18:42;;;;;;;11.15;6.75;;;;;;;8.43;94.08;99509.09;4484579;31;33708;-75
2022/12/24 08:21:09;;;;;;;13.65;6.95;;;;;;;8.51;93.62;99506.00;4491020;31;34374;-73
2022/12/24 08:23:37;;;;;;;12.10;7.10;;;;;;;8.77;95.28;99509.81;4486811;31;33854;-74
2022/12/24 08:26:08;;;;;;;11.18;5.55;;;;;;;8.87;93.69;99531.81;4486296;31;33999;-74
2022/12/24 08:28:37;;;;;;;12.07;6.30;;;;;;;8.45;95.24;99542.72;4489053;31;33618;-74
2022/12/24 08:31:04;;;;;;;12.43;5.65;;;;;;;8.71;95.23;99550.84;4495282;31;33161;-74
2022/12/24 08:33:32;;;;;;;15.57;7.85;;;;;;;8.98;92.42;99546.09;4491039;31;33554;-74
2022/12/24 08:36:00;;;;;;;18.00;9.38;;;;;;;9.07;94.17;99558.56;4481049;31;33791;-74
2022/12/24 08:38:28;;;;;;;16.10;9.25;;;;;;;9.13;91.61;99546.81;4472020;31;33411;-74
2022/12/24 08:40:55;;;;;;;12.07;7.53;;;;;;;8.57;95.38;99565.66;4497460;31;33491;-74
2022/12/24 08:43:24;;;;;;;10.55;5.03;;;;;;;8.61;96.07;99565.00;4490254;31;34325;-75
2022/12/24 08:45:52;;;;;;;9.20;4.00;;;;;;;9.12;94.37;99568.31;4486149;31;34684;-75
2022/12/24 08:48:20;;;;;;;8.18;3.37;;;;;;;9.61;91.21;99565.38;4481490;31;33301;-74
2022/12/24 08:50:47;;;;;;;9.07;4.50;;;;;;;8.90;94.07;99568.09;4489961;31;33127;-74
2022/12/24 08:53:15;;;;;;;7.00;3.17;;;;;;;9.18;93.92;99585.81;4490563;31;33539;-74
2022/12/24 08:55:43;;;;;;;7.75;3.05;;;;;;;9.47;91.79;99586.28;4488403;31;34792;-74
2022/12/24 08:58:14;;;;;;;7.55;4.28;;;;;;;9.25;92.13;99585.25;4481201;31;33777;-74
2022/12/24 09:00:41;;;;;;;15.45;8.27;;;;;;;10.31;87.88;99587.41;4490524;31;34265;-75
2022/12/24 09:03:13;;;;;;;6.78;3.83;;;;;;;10.19;86.34;99587.72;4491900;31;33679;-75
2022/12/24 09:05:42;;;;;;;9.20;6.10;;;;;;;10.58;85.11;99599.72;4483168;31;33552;-75
2022/12/24 09:08:09;;;;;;;9.70;3.17;;;;;;;10.99;82.30;99590.16;4482564;31;34901;-75
2022/12/24 09:10:36;;;;;;;7.78;3.40;;;;;;;10.38;86.17;99607.56;4493047;31;33625;-74
2022/12/24 09:13:04;;;;;;;6.22;3.45;;;;;;;9.40;89.50;99605.78;4484017;32;33916;-74
2022/12/24 09:15:31;;;;;;;9.02;3.90;;;;;;;9.04;92.78;99609.28;4490431;31;33512;-75
2022/12/24 09:18:00;;;;;;;6.70;3.10;;;;;;;8.87;93.61;99614.47;4487405;31;34171;-72
2022/12/24 09:20:27;;;;;;;8.15;3.03;;;;;;;9.29;91.39;99615.62;4474529;31;33608;-74
2022/12/24 09:22:55;;;;;;;7.75;3.70;;;;;;;9.22;93.39;99624.78;4483080;31;34179;-74
2022/12/24 09:25:23;;;;;;;8.48;3.35;;;;;;;9.20;91.67;99620.34;4495353;31;34618;-74
2022/12/24 09:27:50;;;;;;;6.95;3.75;;;;;;;9.16;91.44;99619.31;4483035;31;33240;-74
2022/12/24 09:30:18;;;;;;;6.55;3.12;;;;;;;9.54;90.49;99617.66;4493397;31;33511;-73
2022/12/24 09:32:46;;;;;;;7.60;3.00;;;;;;;9.23;91.66;99629.16;4491590;31;34575;-74
2022/12/24 09:35:13;;;;;;;7.43;3.12;;;;;;;9.48;89.24;99627.69;4486162;31;34037;-73
2022/12/24 09:37:41;;;;;;;9.20;2.78;;;;;;;9.40;89.72;99623.88;4491671;31;34077;-74
2022/12/24 09:40:21;;;;;;;7.07;2.78;;;;;;;9.74;88.17;99620.25;4486818;31;33375;-73
2022/12/24 09:42:53;;;;;;;7.53;2.30;;;;;;;9.64;87.70;99630.19;4474180;31;34541;-73
2022/12/24 09:45:28;;;;;;;10.18;3.20;;;;;;;9.64;86.84;99630.19;4486148;31;32862;-75
2022/12/24 09:48:04;;;;;;;6.87;3.45;;;;;;;9.82;87.72;99629.22;4479365;32;33790;-74
2022/12/24 09:50:50;;;;;;;6.95;3.47;;;;;;;10.07;86.75;99627.75;4480961;32;33409;-75
2022/12/24 09:53:33;;;;;;;7.70;3.25;;;;;;;9.87;86.42;99632.94;4486230;31;34420;-74
2022/12/24 09:56:03;;;;;;;9.32;3.08;;;;;;;10.19;84.99;99623.09;4485190;32;33583;-73
2022/12/24 09:58:47;;;;;;;6.80;3.35;;;;;;;9.92;85.78;99621.06;4492103;31;33914;-73
2022/12/24 10:01:15;;;;;;;6.35;2.67;;;;;;;10.35;85.03;99627.25;4472476;31;33470;-73
2022/12/24 10:03:43;;;;;;;5.70;2.75;;;;;;;10.29;85.29;99638.19;4488980;31;33998;-74
2022/12/24 10:06:15;;;;;;;8.93;3.35;;;;;;;10.45;84.30;99638.88;4486774;31;33494;-73
2022/12/24 10:09:06;;;;;;;8.65;2.80;;;;;;;10.16;85.26;99661.78;4483934;32;34233;-72
2022/12/24 10:11:52;;;;;;;6.10;3.30;;;;;;;10.03;86.09;99656.06;4468874;31;34257;-73
2022/12/24 10:14:23;;;;;;;6.40;3.60;;;;;;;10.32;85.49;99648.72;4477683;31;33662;-73
2022/12/24 10:17:00;;;;;;;8.57;3.92;;;;;;;9.97;86.20;99654.91;4479482;32;33093;-72
2022/12/24 10:19:59;;;;;;;10.77;3.60;;;;;;;9.74;87.94;99653.88;4478949;31;33332;-73
2022/12/24 10:22:53;;;;;;;6.15;3.25;;;;;;;9.94;87.37;99659.94;4485222;32;34079;-73
2022/12/24 10:25:26;;;;;;;6.50;3.40;;;;;;;10.48;84.54;99670.09;4488970;31;34548;-73
2022/12/24 10:27:54;;;;;;;12.18;5.72;;;;;;;10.68;83.16;99658.91;4491971;31;34066;-73
2022/12/24 10:30:22;;;;;;;7.20;3.65;;;;;;;10.09;86.57;99664.94;4488564;31;34565;-73
2022/12/24 10:32:52;;;;;;;7.28;2.70;;;;;;;10.29;85.52;99658.03;4481571;31;33113;-73
2022/12/24 10:35:28;;;;;;;4.72;2.33;;;;;;;10.45;84.82;99659.59;4485356;31;34979;-73
2022/12/24 10:37:56;;;;;;;4.87;2.05;;;;;;;10.38;83.83;99669.69;4480764;31;33771;-73
2022/12/24 10:40:34;;;;;;;5.97;2.40;;;;;;;10.60;82.90;99673.19;4492313;31;33890;-73
2022/12/24 10:43:13;;;;;;;5.25;1.85;;;;;;;10.48;83.28;99670.09;4475701;31;32922;-72
2022/12/24 10:45:44;;;;;;;5.22;2.08;;;;;;;10.47;83.89;99669.22;4482435;31;33451;-73
2022/12/24 10:48:18;;;;;;;6.03;1.90;;;;;;;10.75;82.46;99676.44;4489851;31;33511;-73
2022/12/24 10:51:14;;;;;;;6.07;2.12;;;;;;;10.67;81.58;99675.25;4483809;31;34083;-73
2022/12/24 10:53:48;;;;;;;5.45;1.95;;;;;;;10.77;81.67;99669.62;4479552;31;33900;-73
2022/12/24 10:56:19;;;;;;;5.45;2.25;;;;;;;10.76;81.68;99673.03;4493449;31;34485;-72
2022/12/24 10:58:53;;;;;;;6.90;2.10;;;;;;;10.82;81.42;99675.88;4474855;31;33675;-73
2022/12/24 11:01:44;;;;;;;4.45;1.48;;;;;;;11.38;79.01;99675.53;4482557;31;33257;-73
2022/12/24 11:04:17;;;;;;;3.90;1.60;;;;;;;11.07;78.45;99665.63;4477613;31;32987;-72
2022/12/24 11:07:15;;;;;;;6.75;1.58;;;;;;;11.20;77.19;99668.81;4496224;31;33952;-73
2022/12/24 11:09:54;;;;;;;4.87;1.55;;;;;;;10.97;76.49;99672.16;4485384;31;34492;-73
2022/12/24 11:12:25;;;;;;;6.15;1.35;;;;;;;11.25;75.22;99668.09;4498072;31;33580;-73
2022/12/24 11:15:05;;;;;;;3.95;1.08;;;;;;;11.11;76.16;99665.84;4483444;31;33270;-73
2022/12/24 11:17:33;;;;;;;4.75;1.65;;;;;;;11.23;73.87;99674.94;4471114;31;34518;-73
2022/12/24 11:20:02;;;;;;;4.68;1.30;;;;;;;11.19;73.88;99672.19;4496276;31;34046;-73
2022/12/24 11:22:30;;;;;;;3.53;1.23;;;;;;;10.96;73.02;99688.53;4487508;31;33392;-73
2022/12/24 11:25:06;;;;;;;5.45;1.80;;;;;;;11.11;71.98;99702.13;4482418;31;33438;-73
2022/12/24 11:27:44;;;;;;;4.28;1.50;;;;;;;11.27;72.59;99693.25;4485271;31;33725;-73
2022/12/24 11:30:20;;;;;;;3.17;1.08;;;;;;;11.12;72.99;99698.69;4496171;31;33937;-73
2022/12/24 11:33:00;;;;;;;4.47;1.27;;;;;;;11.10;72.90;99700.34;4491799;31;33877;-74
2022/12/24 11:35:30;;;;;;;5.22;1.55;;;;;;;11.13;72.58;99707.38;4494831;31;33320;-74
2022/12/24 11:38:03;;;;;;;6.90;1.62;;;;;;;11.50;71.48;99701.94;4482956;31;34336;-72
2022/12/24 11:40:36;;;;;;;6.37;1.58;;;;;;;11.24;72.40;99707.78;4484843;31;32308;-73
2022/12/24 11:43:04;;;;;;;4.07;1.30;;;;;;;11.16;72.92;99716.16;4482755;31;33418;-73
2022/12/24 11:45:48;;;;;;;7.97;1.60;;;;;;;11.49;71.45;99700.19;4491730;31;33510;-72
2022/12/24 11:48:31;;;;;;;5.40;1.62;;;;;;;11.34;71.63;99715.16;4491086;31;33713;-73
2022/12/24 11:51:09;;;;;;;5.87;1.50;;;;;;;11.24;72.82;99712.97;4457036;32;34601;-72
2022/12/24 11:53:41;;;;;;;5.47;1.30;;;;;;;11.14;73.50;99712.59;4471437;31;33965;-72